sensor_id;sensor_type;location;lat;lon;timestamp;P1;durP1;ratioP1;P2;durP2;ratioP2
20026;SDS011;10174;42.688;23.344;2023-01-01T00:00:39;484.02;;;203.90;;
20026;SDS011;10174;42.688;23.344;2023-01-01T00:03:04;490.15;;;208.48;;
20026;SDS011;10174;42.688;23.344;2023-01-01T00:05:30;477.10;;;207.07;;
20026;SDS011;10174;42.688;23.344;2023-01-01T00:07:55;457.50;;;193.05;;
20026;SDS011;10174;42.688;23.344;2023-01-01T00:10:21;465.52;;;195.07;;
20026;SDS011;10174;42.688;23.344;2023-01-01T00:12:52;443.55;;;191.60;;
20026;SDS011;10174;42.688;23.344;2023-01-01T00:15:17;457.50;;;201.85;;
20026;SDS011;10174;42.688;23.344;2023-01-01T00:17:43;452.85;;;196.63;;
20026;SDS011;10174;42.688;23.344;2023-01-01T00:20:09;463.48;;;199.80;;
20026;SDS011;10174;42.688;23.344;2023-01-01T00:22:35;460.92;;;200.32;;
20026;SDS011;10174;42.688;23.344;2023-01-01T00:25:00;499.25;;;218.25;;
20026;SDS011;10174;42.688;23.344;2023-01-01T00:27:25;527.45;;;232.35;;
20026;SDS011;10174;42.688;23.344;2023-01-01T00:29:51;579.45;;;258.83;;
20026;SDS011;10174;42.688;23.344;2023-01-01T00:32:16;592.88;;;271.35;;
20026;SDS011;10174;42.688;23.344;2023-01-01T00:34:42;601.05;;;262.90;;
20026;SDS011;10174;42.688;23.344;2023-01-01T00:37:07;593.28;;;260.95;;
20026;SDS011;10174;42.688;23.344;2023-01-01T00:39:33;577.40;;;264.38;;
20026;SDS011;10174;42.688;23.344;2023-01-01T00:41:58;613.35;;;271.08;;
20026;SDS011;10174;42.688;23.344;2023-01-01T00:44:23;600.08;;;268.45;;
20026;SDS011;10174;42.688;23.344;2023-01-01T00:46:49;618.30;;;282.95;;
20026;SDS011;10174;42.688;23.344;2023-01-01T00:49:14;621.75;;;279.00;;
20026;SDS011;10174;42.688;23.344;2023-01-01T00:51:39;621.65;;;276.05;;
20026;SDS011;10174;42.688;23.344;2023-01-01T00:54:05;608.95;;;274.48;;
20026;SDS011;10174;42.688;23.344;2023-01-01T00:56:30;605.25;;;268.50;;
20026;SDS011;10174;42.688;23.344;2023-01-01T00:58:56;578.38;;;256.73;;
20026;SDS011;10174;42.688;23.344;2023-01-01T01:01:21;582.95;;;264.23;;
20026;SDS011;10174;42.688;23.344;2023-01-01T01:03:47;571.97;;;251.40;;
20026;SDS011;10174;42.688;23.344;2023-01-01T01:06:12;565.35;;;243.75;;
20026;SDS011;10174;42.688;23.344;2023-01-01T01:08:44;542.67;;;238.50;;
20026;SDS011;10174;42.688;23.344;2023-01-01T01:11:14;541.88;;;240.63;;
20026;SDS011;10174;42.688;23.344;2023-01-01T01:13:42;570.60;;;243.27;;
20026;SDS011;10174;42.688;23.344;2023-01-01T01:16:20;586.08;;;247.18;;
20026;SDS011;10174;42.688;23.344;2023-01-01T01:18:51;581.30;;;254.50;;
20026;SDS011;10174;42.688;23.344;2023-01-01T01:21:18;598.45;;;260.30;;
20026;SDS011;10174;42.688;23.344;2023-01-01T01:23:45;588.28;;;257.73;;
20026;SDS011;10174;42.688;23.344;2023-01-01T01:26:13;612.60;;;265.17;;
20026;SDS011;10174;42.688;23.344;2023-01-01T01:28:41;595.22;;;268.88;;
20026;SDS011;10174;42.688;23.344;2023-01-01T01:31:07;610.13;;;271.40;;
20026;SDS011;10174;42.688;23.344;2023-01-01T01:33:33;618.58;;;262.67;;
20026;SDS011;10174;42.688;23.344;2023-01-01T01:35:59;609.22;;;262.63;;
20026;SDS011;10174;42.688;23.344;2023-01-01T01:38:25;608.92;;;267.17;;
20026;SDS011;10174;42.688;23.344;2023-01-01T01:40:50;613.53;;;271.05;;
20026;SDS011;10174;42.688;23.344;2023-01-01T01:43:20;626.42;;;272.83;;
20026;SDS011;10174;42.688;23.344;2023-01-01T01:45:48;641.20;;;285.33;;
20026;SDS011;10174;42.688;23.344;2023-01-01T01:48:18;638.15;;;285.38;;
20026;SDS011;10174;42.688;23.344;2023-01-01T01:50:44;658.85;;;292.88;;
20026;SDS011;10174;42.688;23.344;2023-01-01T01:53:16;648.08;;;290.50;;
20026;SDS011;10174;42.688;23.344;2023-01-01T01:55:50;642.83;;;286.27;;
20026;SDS011;10174;42.688;23.344;2023-01-01T01:58:19;656.03;;;291.67;;
20026;SDS011;10174;42.688;23.344;2023-01-01T02:00:45;662.20;;;293.27;;
20026;SDS011;10174;42.688;23.344;2023-01-01T02:03:16;669.53;;;291.27;;
20026;SDS011;10174;42.688;23.344;2023-01-01T02:05:46;649.22;;;290.23;;
20026;SDS011;10174;42.688;23.344;2023-01-01T02:08:14;659.42;;;296.67;;
20026;SDS011;10174;42.688;23.344;2023-01-01T02:10:40;650.97;;;290.15;;
20026;SDS011;10174;42.688;23.344;2023-01-01T02:13:06;639.75;;;284.30;;
20026;SDS011;10174;42.688;23.344;2023-01-01T02:15:40;631.78;;;281.80;;
20026;SDS011;10174;42.688;23.344;2023-01-01T02:18:16;638.00;;;282.88;;
20026;SDS011;10174;42.688;23.344;2023-01-01T02:21:05;647.35;;;290.80;;
20026;SDS011;10174;42.688;23.344;2023-01-01T02:32:08;651.72;;;291.45;;
20026;SDS011;10174;42.688;23.344;2023-01-01T02:34:40;663.88;;;294.98;;
20026;SDS011;10174;42.688;23.344;2023-01-01T02:37:11;657.50;;;293.15;;
20026;SDS011;10174;42.688;23.344;2023-01-01T02:39:41;663.45;;;296.83;;
20026;SDS011;10174;42.688;23.344;2023-01-01T02:42:28;660.20;;;289.80;;
20026;SDS011;10174;42.688;23.344;2023-01-01T02:44:54;652.45;;;293.70;;
20026;SDS011;10174;42.688;23.344;2023-01-01T02:47:22;665.55;;;296.10;;
20026;SDS011;10174;42.688;23.344;2023-01-01T02:49:52;661.92;;;300.63;;
20026;SDS011;10174;42.688;23.344;2023-01-01T02:57:56;662.42;;;294.05;;
20026;SDS011;10174;42.688;23.344;2023-01-01T03:00:48;638.78;;;277.35;;
20026;SDS011;10174;42.688;23.344;2023-01-01T03:07:00;612.25;;;266.17;;
20026;SDS011;10174;42.688;23.344;2023-01-01T03:12:20;622.90;;;269.48;;
20026;SDS011;10174;42.688;23.344;2023-01-01T03:15:05;592.10;;;259.02;;
20026;SDS011;10174;42.688;23.344;2023-01-01T03:17:38;602.90;;;261.40;;
20026;SDS011;10174;42.688;23.344;2023-01-01T03:20:10;604.63;;;259.60;;
20026;SDS011;10174;42.688;23.344;2023-01-01T03:22:42;600.45;;;262.30;;
20026;SDS011;10174;42.688;23.344;2023-01-01T03:25:11;592.33;;;254.25;;
20026;SDS011;10174;42.688;23.344;2023-01-01T03:30:17;596.60;;;258.33;;
20026;SDS011;10174;42.688;23.344;2023-01-01T03:32:55;592.30;;;254.93;;
20026;SDS011;10174;42.688;23.344;2023-01-01T03:35:26;577.00;;;252.88;;
20026;SDS011;10174;42.688;23.344;2023-01-01T03:37:55;574.45;;;246.43;;
20026;SDS011;10174;42.688;23.344;2023-01-01T03:40:23;585.17;;;255.02;;
20026;SDS011;10174;42.688;23.344;2023-01-01T03:42:51;588.95;;;255.75;;
20026;SDS011;10174;42.688;23.344;2023-01-01T03:45:25;587.47;;;252.35;;
20026;SDS011;10174;42.688;23.344;2023-01-01T03:47:55;608.40;;;256.30;;
20026;SDS011;10174;42.688;23.344;2023-01-01T03:50:21;593.97;;;261.38;;
20026;SDS011;10174;42.688;23.344;2023-01-01T03:52:56;602.20;;;263.48;;
20026;SDS011;10174;42.688;23.344;2023-01-01T04:01:25;593.42;;;262.08;;
20026;SDS011;10174;42.688;23.344;2023-01-01T04:04:02;609.30;;;263.60;;
20026;SDS011;10174;42.688;23.344;2023-01-01T04:06:33;642.30;;;275.20;;
20026;SDS011;10174;42.688;23.344;2023-01-01T04:08:59;606.75;;;269.77;;
20026;SDS011;10174;42.688;23.344;2023-01-01T04:11:28;601.20;;;263.10;;
20026;SDS011;10174;42.688;23.344;2023-01-01T04:14:24;618.47;;;267.80;;
20026;SDS011;10174;42.688;23.344;2023-01-01T04:16:51;604.65;;;261.20;;
20026;SDS011;10174;42.688;23.344;2023-01-01T04:19:16;622.28;;;273.23;;
20026;SDS011;10174;42.688;23.344;2023-01-01T04:21:42;637.58;;;265.58;;
20026;SDS011;10174;42.688;23.344;2023-01-01T04:24:07;610.75;;;267.27;;
20026;SDS011;10174;42.688;23.344;2023-01-01T04:26:33;613.67;;;265.67;;
20026;SDS011;10174;42.688;23.344;2023-01-01T04:28:59;586.95;;;258.35;;
20026;SDS011;10174;42.688;23.344;2023-01-01T04:31:24;586.75;;;255.43;;
20026;SDS011;10174;42.688;23.344;2023-01-01T04:33:52;617.00;;;263.05;;
20026;SDS011;10174;42.688;23.344;2023-01-01T04:36:18;607.45;;;264.52;;
20026;SDS011;10174;42.688;23.344;2023-01-01T04:38:43;584.67;;;249.02;;
20026;SDS011;10174;42.688;23.344;2023-01-01T04:41:09;544.75;;;236.77;;
20026;SDS011;10174;42.688;23.344;2023-01-01T04:43:34;523.30;;;221.75;;
20026;SDS011;10174;42.688;23.344;2023-01-01T04:46:00;503.45;;;213.88;;
20026;SDS011;10174;42.688;23.344;2023-01-01T04:48:28;507.98;;;217.50;;
20026;SDS011;10174;42.688;23.344;2023-01-01T04:50:55;511.25;;;213.48;;
20026;SDS011;10174;42.688;23.344;2023-01-01T04:53:21;495.20;;;207.82;;
20026;SDS011;10174;42.688;23.344;2023-01-01T04:55:46;477.70;;;200.70;;
20026;SDS011;10174;42.688;23.344;2023-01-01T04:58:11;475.10;;;202.77;;
20026;SDS011;10174;42.688;23.344;2023-01-01T05:00:37;511.98;;;213.50;;
20026;SDS011;10174;42.688;23.344;2023-01-01T05:03:02;482.65;;;209.88;;
20026;SDS011;10174;42.688;23.344;2023-01-01T05:05:27;472.52;;;194.82;;
20026;SDS011;10174;42.688;23.344;2023-01-01T05:07:53;481.30;;;202.32;;
20026;SDS011;10174;42.688;23.344;2023-01-01T05:10:18;482.50;;;198.13;;
20026;SDS011;10174;42.688;23.344;2023-01-01T05:12:43;476.33;;;195.80;;
20026;SDS011;10174;42.688;23.344;2023-01-01T05:15:09;473.55;;;189.93;;
20026;SDS011;10174;42.688;23.344;2023-01-01T05:17:34;472.40;;;191.82;;
20026;SDS011;10174;42.688;23.344;2023-01-01T05:20:00;462.25;;;184.48;;
20026;SDS011;10174;42.688;23.344;2023-01-01T05:22:25;450.70;;;186.02;;
20026;SDS011;10174;42.688;23.344;2023-01-01T05:24:50;436.98;;;182.82;;
20026;SDS011;10174;42.688;23.344;2023-01-01T05:27:16;447.90;;;179.65;;
20026;SDS011;10174;42.688;23.344;2023-01-01T05:29:41;432.75;;;174.95;;
20026;SDS011;10174;42.688;23.344;2023-01-01T05:32:07;486.10;;;190.88;;
20026;SDS011;10174;42.688;23.344;2023-01-01T05:34:32;438.80;;;177.82;;
20026;SDS011;10174;42.688;23.344;2023-01-01T05:36:57;436.10;;;173.00;;
20026;SDS011;10174;42.688;23.344;2023-01-01T05:39:23;415.17;;;164.77;;
20026;SDS011;10174;42.688;23.344;2023-01-01T05:41:48;429.55;;;169.45;;
20026;SDS011;10174;42.688;23.344;2023-01-01T05:44:14;422.83;;;170.85;;
20026;SDS011;10174;42.688;23.344;2023-01-01T05:46:41;432.65;;;170.50;;
20026;SDS011;10174;42.688;23.344;2023-01-01T05:49:08;426.75;;;168.52;;
20026;SDS011;10174;42.688;23.344;2023-01-01T05:51:35;443.08;;;166.20;;
20026;SDS011;10174;42.688;23.344;2023-01-01T05:54:01;410.52;;;168.10;;
20026;SDS011;10174;42.688;23.344;2023-01-01T05:56:26;421.20;;;168.77;;
20026;SDS011;10174;42.688;23.344;2023-01-01T05:58:52;430.70;;;175.40;;
20026;SDS011;10174;42.688;23.344;2023-01-01T06:01:19;416.65;;;169.13;;
20026;SDS011;10174;42.688;23.344;2023-01-01T06:03:49;440.70;;;180.25;;
20026;SDS011;10174;42.688;23.344;2023-01-01T06:06:17;426.25;;;171.95;;
20026;SDS011;10174;42.688;23.344;2023-01-01T06:08:48;418.50;;;165.80;;
20026;SDS011;10174;42.688;23.344;2023-01-01T06:11:14;423.98;;;168.23;;
20026;SDS011;10174;42.688;23.344;2023-01-01T06:13:40;413.60;;;165.13;;
20026;SDS011;10174;42.688;23.344;2023-01-01T06:16:05;413.38;;;165.50;;
20026;SDS011;10174;42.688;23.344;2023-01-01T06:18:33;420.15;;;166.85;;
20026;SDS011;10174;42.688;23.344;2023-01-01T06:21:06;432.35;;;172.88;;
20026;SDS011;10174;42.688;23.344;2023-01-01T06:23:33;436.30;;;170.93;;
20026;SDS011;10174;42.688;23.344;2023-01-01T06:26:18;414.40;;;165.20;;
20026;SDS011;10174;42.688;23.344;2023-01-01T06:28:46;418.20;;;169.23;;
20026;SDS011;10174;42.688;23.344;2023-01-01T06:31:13;450.13;;;173.70;;
20026;SDS011;10174;42.688;23.344;2023-01-01T06:33:40;439.45;;;175.60;;
20026;SDS011;10174;42.688;23.344;2023-01-01T06:36:07;437.45;;;169.63;;
20026;SDS011;10174;42.688;23.344;2023-01-01T06:38:36;432.73;;;172.88;;
20026;SDS011;10174;42.688;23.344;2023-01-01T06:41:03;434.92;;;169.27;;
20026;SDS011;10174;42.688;23.344;2023-01-01T06:43:31;428.25;;;169.90;;
20026;SDS011;10174;42.688;23.344;2023-01-01T06:48:53;440.75;;;176.63;;
20026;SDS011;10174;42.688;23.344;2023-01-01T06:51:22;306.50;;;125.78;;
20026;SDS011;10174;42.688;23.344;2023-01-01T06:53:53;319.70;;;128.23;;
20026;SDS011;10174;42.688;23.344;2023-01-01T06:56:19;309.88;;;127.07;;
20026;SDS011;10174;42.688;23.344;2023-01-01T06:58:45;310.98;;;124.65;;
20026;SDS011;10174;42.688;23.344;2023-01-01T07:03:43;289.45;;;120.50;;
20026;SDS011;10174;42.688;23.344;2023-01-01T07:06:14;283.58;;;114.68;;
20026;SDS011;10174;42.688;23.344;2023-01-01T07:08:39;291.38;;;112.43;;
20026;SDS011;10174;42.688;23.344;2023-01-01T07:11:04;286.98;;;113.95;;
20026;SDS011;10174;42.688;23.344;2023-01-01T07:13:30;281.33;;;113.53;;
20026;SDS011;10174;42.688;23.344;2023-01-01T07:15:55;336.08;;;139.30;;
20026;SDS011;10174;42.688;23.344;2023-01-01T07:18:21;372.58;;;150.65;;
20026;SDS011;10174;42.688;23.344;2023-01-01T07:20:49;347.95;;;141.48;;
20026;SDS011;10174;42.688;23.344;2023-01-01T07:23:16;349.20;;;142.30;;
20026;SDS011;10174;42.688;23.344;2023-01-01T07:25:42;297.65;;;122.75;;
20026;SDS011;10174;42.688;23.344;2023-01-01T07:28:07;284.02;;;112.30;;
20026;SDS011;10174;42.688;23.344;2023-01-01T07:30:33;275.40;;;111.50;;
20026;SDS011;10174;42.688;23.344;2023-01-01T07:32:58;276.48;;;110.50;;
20026;SDS011;10174;42.688;23.344;2023-01-01T07:35:24;260.23;;;106.05;;
20026;SDS011;10174;42.688;23.344;2023-01-01T07:37:49;269.67;;;107.15;;
20026;SDS011;10174;42.688;23.344;2023-01-01T07:40:14;263.67;;;108.43;;
20026;SDS011;10174;42.688;23.344;2023-01-01T07:42:40;276.35;;;111.65;;
20026;SDS011;10174;42.688;23.344;2023-01-01T07:45:05;281.10;;;112.55;;
20026;SDS011;10174;42.688;23.344;2023-01-01T07:47:31;282.50;;;115.15;;
20026;SDS011;10174;42.688;23.344;2023-01-01T07:49:57;283.65;;;114.68;;
20026;SDS011;10174;42.688;23.344;2023-01-01T07:52:22;280.25;;;114.82;;
20026;SDS011;10174;42.688;23.344;2023-01-01T07:54:48;279.33;;;109.63;;
20026;SDS011;10174;42.688;23.344;2023-01-01T07:57:13;266.27;;;111.10;;
20026;SDS011;10174;42.688;23.344;2023-01-01T07:59:38;267.27;;;108.50;;
20026;SDS011;10174;42.688;23.344;2023-01-01T08:02:04;253.48;;;104.97;;
20026;SDS011;10174;42.688;23.344;2023-01-01T08:04:30;253.07;;;102.70;;
20026;SDS011;10174;42.688;23.344;2023-01-01T08:06:55;243.05;;;102.70;;
20026;SDS011;10174;42.688;23.344;2023-01-01T08:09:20;249.45;;;101.88;;
20026;SDS011;10174;42.688;23.344;2023-01-01T08:11:46;250.80;;;104.30;;
20026;SDS011;10174;42.688;23.344;2023-01-01T08:14:11;252.75;;;101.88;;
20026;SDS011;10174;42.688;23.344;2023-01-01T08:16:37;257.08;;;105.90;;
20026;SDS011;10174;42.688;23.344;2023-01-01T08:19:03;256.98;;;106.80;;
20026;SDS011;10174;42.688;23.344;2023-01-01T08:21:28;251.38;;;105.05;;
20026;SDS011;10174;42.688;23.344;2023-01-01T08:23:54;241.55;;;103.18;;
20026;SDS011;10174;42.688;23.344;2023-01-01T08:26:53;247.52;;;99.60;;
20026;SDS011;10174;42.688;23.344;2023-01-01T08:29:12;248.60;;;103.75;;
20026;SDS011;10174;42.688;23.344;2023-01-01T08:31:37;241.52;;;100.53;;
20026;SDS011;10174;42.688;23.344;2023-01-01T08:34:03;251.02;;;103.28;;
20026;SDS011;10174;42.688;23.344;2023-01-01T08:36:28;246.13;;;104.22;;
20026;SDS011;10174;42.688;23.344;2023-01-01T08:38:54;241.20;;;99.60;;
20026;SDS011;10174;42.688;23.344;2023-01-01T08:41:19;248.43;;;102.85;;
20026;SDS011;10174;42.688;23.344;2023-01-01T08:43:44;239.10;;;102.50;;
20026;SDS011;10174;42.688;23.344;2023-01-01T08:46:10;237.57;;;100.93;;
20026;SDS011;10174;42.688;23.344;2023-01-01T08:48:35;244.68;;;104.00;;
20026;SDS011;10174;42.688;23.344;2023-01-01T08:51:01;244.45;;;103.15;;
20026;SDS011;10174;42.688;23.344;2023-01-01T08:53:29;253.13;;;104.82;;
20026;SDS011;10174;42.688;23.344;2023-01-01T08:55:59;241.00;;;102.45;;
20026;SDS011;10174;42.688;23.344;2023-01-01T08:58:27;241.77;;;103.28;;
20026;SDS011;10174;42.688;23.344;2023-01-01T09:00:53;240.20;;;103.32;;
20026;SDS011;10174;42.688;23.344;2023-01-01T09:03:19;230.68;;;98.07;;
20026;SDS011;10174;42.688;23.344;2023-01-01T09:05:44;231.23;;;98.97;;
20026;SDS011;10174;42.688;23.344;2023-01-01T09:08:13;217.73;;;97.82;;
20026;SDS011;10174;42.688;23.344;2023-01-01T09:10:39;228.23;;;96.97;;
20026;SDS011;10174;42.688;23.344;2023-01-01T09:13:07;229.32;;;96.10;;
20026;SDS011;10174;42.688;23.344;2023-01-01T09:15:36;224.60;;;97.38;;
20026;SDS011;10174;42.688;23.344;2023-01-01T09:18:02;219.98;;;92.90;;
20026;SDS011;10174;42.688;23.344;2023-01-01T09:20:27;225.05;;;95.70;;
20026;SDS011;10174;42.688;23.344;2023-01-01T09:22:53;220.90;;;95.68;;
20026;SDS011;10174;42.688;23.344;2023-01-01T09:25:18;234.15;;;99.32;;
20026;SDS011;10174;42.688;23.344;2023-01-01T09:27:44;225.77;;;101.30;;
20026;SDS011;10174;42.688;23.344;2023-01-01T09:30:09;235.82;;;104.03;;
20026;SDS011;10174;42.688;23.344;2023-01-01T09:32:36;251.10;;;107.38;;
20026;SDS011;10174;42.688;23.344;2023-01-01T09:35:01;236.32;;;102.13;;
20026;SDS011;10174;42.688;23.344;2023-01-01T09:37:27;242.70;;;102.28;;
20026;SDS011;10174;42.688;23.344;2023-01-01T09:39:52;239.23;;;101.70;;
20026;SDS011;10174;42.688;23.344;2023-01-01T09:47:50;234.23;;;103.13;;
20026;SDS011;10174;42.688;23.344;2023-01-01T09:50:20;236.30;;;102.00;;
20026;SDS011;10174;42.688;23.344;2023-01-01T09:58:08;211.73;;;96.07;;
20026;SDS011;10174;42.688;23.344;2023-01-01T10:00:35;217.27;;;94.78;;
20026;SDS011;10174;42.688;23.344;2023-01-01T10:14:34;199.27;;;88.38;;
20026;SDS011;10174;42.688;23.344;2023-01-01T10:17:05;201.60;;;91.00;;
20026;SDS011;10174;42.688;23.344;2023-01-01T10:19:44;193.68;;;88.18;;
20026;SDS011;10174;42.688;23.344;2023-01-01T10:22:17;186.90;;;85.85;;
20026;SDS011;10174;42.688;23.344;2023-01-01T10:24:57;189.80;;;86.40;;
20026;SDS011;10174;42.688;23.344;2023-01-01T10:27:35;190.50;;;84.35;;
20026;SDS011;10174;42.688;23.344;2023-01-01T10:30:12;192.13;;;83.78;;
20026;SDS011;10174;42.688;23.344;2023-01-01T10:32:39;174.50;;;80.60;;
20026;SDS011;10174;42.688;23.344;2023-01-01T10:35:11;175.75;;;77.43;;
20026;SDS011;10174;42.688;23.344;2023-01-01T10:37:39;169.90;;;76.13;;
20026;SDS011;10174;42.688;23.344;2023-01-01T10:40:12;159.88;;;75.05;;
20026;SDS011;10174;42.688;23.344;2023-01-01T10:42:40;176.73;;;78.40;;
20026;SDS011;10174;42.688;23.344;2023-01-01T10:45:10;171.43;;;75.88;;
20026;SDS011;10174;42.688;23.344;2023-01-01T10:47:38;161.90;;;74.70;;
20026;SDS011;10174;42.688;23.344;2023-01-01T10:50:24;166.00;;;73.38;;
20026;SDS011;10174;42.688;23.344;2023-01-01T10:53:16;170.15;;;75.00;;
20026;SDS011;10174;42.688;23.344;2023-01-01T10:55:47;158.05;;;73.47;;
20026;SDS011;10174;42.688;23.344;2023-01-01T10:58:32;156.48;;;73.40;;
20026;SDS011;10174;42.688;23.344;2023-01-01T11:01:04;156.07;;;72.43;;
20026;SDS011;10174;42.688;23.344;2023-01-01T11:03:32;145.23;;;67.75;;
20026;SDS011;10174;42.688;23.344;2023-01-01T11:08:36;146.73;;;67.32;;
20026;SDS011;10174;42.688;23.344;2023-01-01T11:11:03;153.38;;;68.85;;
20026;SDS011;10174;42.688;23.344;2023-01-01T11:13:29;144.55;;;67.55;;
20026;SDS011;10174;42.688;23.344;2023-01-01T11:15:55;146.20;;;64.93;;
20026;SDS011;10174;42.688;23.344;2023-01-01T11:18:22;146.00;;;64.45;;
20026;SDS011;10174;42.688;23.344;2023-01-01T11:21:00;137.05;;;63.53;;
20026;SDS011;10174;42.688;23.344;2023-01-01T11:28:36;128.18;;;59.65;;
20026;SDS011;10174;42.688;23.344;2023-01-01T11:33:37;129.32;;;59.38;;
20026;SDS011;10174;42.688;23.344;2023-01-01T11:36:12;133.20;;;63.10;;
20026;SDS011;10174;42.688;23.344;2023-01-01T11:39:36;132.15;;;60.45;;
20026;SDS011;10174;42.688;23.344;2023-01-01T11:41:46;129.50;;;55.80;;
20026;SDS011;10174;42.688;23.344;2023-01-01T11:44:22;126.05;;;57.67;;
20026;SDS011;10174;42.688;23.344;2023-01-01T11:47:15;115.13;;;54.10;;
20026;SDS011;10174;42.688;23.344;2023-01-01T11:49:51;117.65;;;56.05;;
20026;SDS011;10174;42.688;23.344;2023-01-01T11:52:26;112.45;;;52.92;;
20026;SDS011;10174;42.688;23.344;2023-01-01T11:55:35;105.50;;;51.38;;
20026;SDS011;10174;42.688;23.344;2023-01-01T12:03:26;113.25;;;54.70;;
20026;SDS011;10174;42.688;23.344;2023-01-01T12:08:38;109.40;;;53.95;;
20026;SDS011;10174;42.688;23.344;2023-01-01T12:13:43;102.28;;;52.75;;
20026;SDS011;10174;42.688;23.344;2023-01-01T12:16:17;95.72;;;49.50;;
20026;SDS011;10174;42.688;23.344;2023-01-01T12:18:47;93.63;;;48.47;;
20026;SDS011;10174;42.688;23.344;2023-01-01T12:21:25;94.88;;;47.88;;
20026;SDS011;10174;42.688;23.344;2023-01-01T12:23:52;91.03;;;47.17;;
20026;SDS011;10174;42.688;23.344;2023-01-01T12:26:21;88.13;;;48.60;;
20026;SDS011;10174;42.688;23.344;2023-01-01T12:47:40;85.53;;;42.97;;
20026;SDS011;10174;42.688;23.344;2023-01-01T13:00:42;86.65;;;43.83;;
20026;SDS011;10174;42.688;23.344;2023-01-01T13:03:18;79.60;;;41.85;;
20026;SDS011;10174;42.688;23.344;2023-01-01T13:05:52;85.90;;;42.15;;
20026;SDS011;10174;42.688;23.344;2023-01-01T13:08:20;84.80;;;42.95;;
20026;SDS011;10174;42.688;23.344;2023-01-01T13:10:46;90.53;;;44.47;;
20026;SDS011;10174;42.688;23.344;2023-01-01T13:13:16;92.45;;;42.17;;
20026;SDS011;10174;42.688;23.344;2023-01-01T13:20:41;91.53;;;45.13;;
20026;SDS011;10174;42.688;23.344;2023-01-01T13:31:17;90.63;;;45.42;;
20026;SDS011;10174;42.688;23.344;2023-01-01T13:33:43;94.00;;;46.78;;
20026;SDS011;10174;42.688;23.344;2023-01-01T13:41:59;93.13;;;44.50;;
20026;SDS011;10174;42.688;23.344;2023-01-01T14:03:26;90.03;;;43.92;;
20026;SDS011;10174;42.688;23.344;2023-01-01T14:05:54;94.75;;;44.20;;
20026;SDS011;10174;42.688;23.344;2023-01-01T14:08:28;88.10;;;43.58;;
20026;SDS011;10174;42.688;23.344;2023-01-01T14:10:55;91.97;;;43.35;;
20026;SDS011;10174;42.688;23.344;2023-01-01T14:13:21;90.18;;;42.83;;
20026;SDS011;10174;42.688;23.344;2023-01-01T14:15:53;92.82;;;44.00;;
20026;SDS011;10174;42.688;23.344;2023-01-01T14:18:24;104.22;;;45.58;;
20026;SDS011;10174;42.688;23.344;2023-01-01T14:20:58;93.85;;;42.25;;
20026;SDS011;10174;42.688;23.344;2023-01-01T14:23:29;94.57;;;43.08;;
20026;SDS011;10174;42.688;23.344;2023-01-01T14:25:58;105.65;;;43.25;;
20026;SDS011;10174;42.688;23.344;2023-01-01T14:28:26;95.18;;;43.90;;
20026;SDS011;10174;42.688;23.344;2023-01-01T14:30:58;104.20;;;42.13;;
20026;SDS011;10174;42.688;23.344;2023-01-01T14:33:26;105.13;;;42.35;;
20026;SDS011;10174;42.688;23.344;2023-01-01T14:35:55;123.82;;;43.40;;
20026;SDS011;10174;42.688;23.344;2023-01-01T14:38:23;105.50;;;43.30;;
20026;SDS011;10174;42.688;23.344;2023-01-01T14:43:43;114.00;;;44.10;;
20026;SDS011;10174;42.688;23.344;2023-01-01T14:46:15;103.78;;;41.58;;
20026;SDS011;10174;42.688;23.344;2023-01-01T14:48:43;95.63;;;41.50;;
20026;SDS011;10174;42.688;23.344;2023-01-01T14:51:15;117.55;;;41.90;;
20026;SDS011;10174;42.688;23.344;2023-01-01T14:53:43;116.53;;;42.20;;
20026;SDS011;10174;42.688;23.344;2023-01-01T14:56:19;112.93;;;41.17;;
20026;SDS011;10174;42.688;23.344;2023-01-01T14:58:47;101.80;;;39.92;;
20026;SDS011;10174;42.688;23.344;2023-01-01T15:01:14;93.85;;;40.35;;
20026;SDS011;10174;42.688;23.344;2023-01-01T15:03:53;104.38;;;40.83;;
20026;SDS011;10174;42.688;23.344;2023-01-01T15:06:19;105.82;;;41.10;;
20026;SDS011;10174;42.688;23.344;2023-01-01T15:08:48;110.80;;;41.17;;
20026;SDS011;10174;42.688;23.344;2023-01-01T15:11:17;111.13;;;41.80;;
20026;SDS011;10174;42.688;23.344;2023-01-01T15:13:54;118.60;;;42.30;;
20026;SDS011;10174;42.688;23.344;2023-01-01T15:16:21;104.85;;;42.28;;
20026;SDS011;10174;42.688;23.344;2023-01-01T15:18:47;103.68;;;41.20;;
20026;SDS011;10174;42.688;23.344;2023-01-01T15:26:27;111.95;;;41.72;;
20026;SDS011;10174;42.688;23.344;2023-01-01T15:29:01;106.45;;;41.58;;
20026;SDS011;10174;42.688;23.344;2023-01-01T15:31:37;105.38;;;42.35;;
20026;SDS011;10174;42.688;23.344;2023-01-01T15:34:12;113.13;;;42.15;;
20026;SDS011;10174;42.688;23.344;2023-01-01T15:36:44;124.78;;;43.28;;
20026;SDS011;10174;42.688;23.344;2023-01-01T15:39:10;120.25;;;42.78;;
20026;SDS011;10174;42.688;23.344;2023-01-01T15:41:41;116.75;;;41.25;;
20026;SDS011;10174;42.688;23.344;2023-01-01T15:46:44;109.63;;;41.60;;
20026;SDS011;10174;42.688;23.344;2023-01-01T15:49:27;110.18;;;43.08;;
20026;SDS011;10174;42.688;23.344;2023-01-01T15:51:58;110.97;;;42.53;;
20026;SDS011;10174;42.688;23.344;2023-01-01T15:54:27;121.63;;;45.08;;
20026;SDS011;10174;42.688;23.344;2023-01-01T15:56:53;115.63;;;44.40;;
20026;SDS011;10174;42.688;23.344;2023-01-01T15:59:21;103.97;;;41.53;;
20026;SDS011;10174;42.688;23.344;2023-01-01T16:02:11;117.13;;;43.03;;
20026;SDS011;10174;42.688;23.344;2023-01-01T16:04:40;110.13;;;40.90;;
20026;SDS011;10174;42.688;23.344;2023-01-01T16:07:14;105.20;;;40.78;;
20026;SDS011;10174;42.688;23.344;2023-01-01T16:09:41;115.00;;;42.78;;
20026;SDS011;10174;42.688;23.344;2023-01-01T16:12:07;97.28;;;42.25;;
20026;SDS011;10174;42.688;23.344;2023-01-01T16:14:33;109.47;;;41.17;;
20026;SDS011;10174;42.688;23.344;2023-01-01T16:16:59;107.88;;;40.58;;
20026;SDS011;10174;42.688;23.344;2023-01-01T16:19:26;108.82;;;42.70;;
20026;SDS011;10174;42.688;23.344;2023-01-01T16:21:53;110.30;;;43.25;;
20026;SDS011;10174;42.688;23.344;2023-01-01T16:24:19;106.22;;;43.60;;
20026;SDS011;10174;42.688;23.344;2023-01-01T16:26:45;99.38;;;41.78;;
20026;SDS011;10174;42.688;23.344;2023-01-01T16:29:11;95.78;;;41.78;;
20026;SDS011;10174;42.688;23.344;2023-01-01T16:31:37;101.50;;;45.72;;
20026;SDS011;10174;42.688;23.344;2023-01-01T16:34:02;114.15;;;43.92;;
20026;SDS011;10174;42.688;23.344;2023-01-01T16:36:29;118.45;;;45.08;;